createdAt,value
2019-04-25T00:00:51.945Z,641.7
2019-04-25T00:01:54.092Z,641.6
2019-04-25T00:02:56.522Z,641.6
2019-04-25T00:03:58.951Z,641.9
2019-04-25T00:05:04.270Z,642
2019-04-25T00:06:06.433Z,641.9
2019-04-25T00:07:08.581Z,641.9
2019-04-25T00:08:12.531Z,642.1
2019-04-25T00:09:14.965Z,642.1
2019-04-25T00:10:17.131Z,642.1
2019-04-25T00:11:19.284Z,642.1
2019-04-25T00:12:23.173Z,642.4
2019-04-25T00:13:25.596Z,642.1
2019-04-25T00:14:28.019Z,642
2019-04-25T00:15:29.652Z,641.7
2019-04-25T00:16:32.550Z,641.5
2019-04-25T00:17:34.983Z,641.8
2019-04-25T00:18:38.505Z,641.6
2019-04-25T00:19:44.815Z,641.9
2019-04-25T00:20:48.791Z,641.6
2019-04-25T00:21:52.191Z,641.6
2019-04-25T00:22:55.083Z,641.3
2019-04-25T00:23:56.952Z,641.1
2019-04-25T00:24:59.121Z,641
2019-04-25T00:26:03.258Z,641
2019-04-25T00:27:05.673Z,641
2019-04-25T00:28:07.824Z,640.8
2019-04-25T00:29:09.971Z,641
2019-04-25T00:30:12.979Z,641
2019-04-25T00:31:15.123Z,641
2019-04-25T00:32:17.552Z,640.7
2019-04-25T00:33:19.703Z,640.7
2019-04-25T00:34:23.723Z,640.5
2019-04-25T00:35:26.147Z,640.3
2019-04-25T00:36:28.300Z,640.5
2019-04-25T00:37:32.144Z,640.1
2019-04-25T00:38:34.482Z,639.8
2019-04-25T00:39:36.910Z,640.1
2019-04-25T00:40:39.349Z,639.6
2019-04-25T00:42:48.767Z,639.2
2019-04-25T00:43:54.007Z,639.5
2019-04-25T00:44:56.155Z,639.7
2019-04-25T00:45:58.574Z,639.7
2019-04-25T00:47:02.637Z,639.3
2019-04-25T00:48:06.081Z,638.9
2019-04-25T00:49:07.959Z,639.1
2019-04-25T00:50:11.934Z,639.3
2019-04-25T00:51:14.113Z,639.5
2019-04-25T00:52:16.264Z,639.5
2019-04-25T00:53:18.693Z,639.6
2019-04-25T00:54:23.152Z,639.6
2019-04-25T00:56:30.283Z,640.2
2019-04-25T00:57:34.019Z,640.6
2019-04-25T00:58:36.453Z,640.6
2019-04-25T00:59:38.614Z,640.3
2019-04-25T01:00:44.803Z,640.6
2019-04-25T01:01:51.779Z,640.7
2019-04-25T01:02:56.907Z,640.4
2019-04-25T01:03:59.063Z,640.1
2019-04-25T01:05:03.310Z,640.3
2019-04-25T01:06:05.852Z,640.2
2019-04-25T01:07:07.722Z,640.1
2019-04-25T01:08:10.152Z,640.4
2019-04-25T01:09:13.883Z,640.3
2019-04-25T01:10:16.021Z,640
2019-04-25T01:11:18.440Z,639.9
2019-04-25T01:12:22.529Z,640
2019-04-25T01:13:24.384Z,639.8
2019-04-25T01:14:26.819Z,640.3
2019-04-25T01:15:28.950Z,640.5
2019-04-25T01:16:32.820Z,640.7
2019-04-25T01:17:34.963Z,641.4
2019-04-25T01:18:39.100Z,641.6
2019-04-25T01:19:41.516Z,642.1
2019-04-25T01:20:47.275Z,642.5
2019-04-25T01:21:51.047Z,641.8
2019-04-25T01:23:58.542Z,641.3
2019-04-25T01:25:00.962Z,641.3
2019-04-25T01:26:04.530Z,641.6
2019-04-25T01:27:07.334Z,641.7
2019-04-25T01:28:09.772Z,641.7
2019-04-25T01:29:13.418Z,641.4
2019-04-25T01:30:16.079Z,641.6
2019-04-25T01:31:18.252Z,641.6
2019-04-25T01:32:20.665Z,641.7
2019-04-25T01:33:24.761Z,641.5
2019-04-25T01:34:27.512Z,641.9
2019-04-25T01:35:29.943Z,642
2019-04-25T01:36:34.177Z,641.8
2019-04-25T01:37:36.050Z,641.9
2019-04-25T01:38:38.470Z,642
2019-04-25T01:39:40.908Z,642.3
2019-04-25T01:40:45.282Z,642.5
2019-04-25T01:41:49.839Z,642.1
2019-04-25T01:42:55.826Z,642.6
2019-04-25T01:45:04.985Z,642.3
2019-04-25T01:46:07.407Z,642.5
2019-04-25T01:47:09.837Z,642.7
2019-04-25T01:48:14.101Z,642.4
2019-04-25T01:49:16.263Z,641.9
2019-04-25T01:50:18.686Z,641.9
2019-04-25T01:51:21.105Z,641.9
2019-04-25T01:52:25.142Z,642
2019-04-25T01:53:27.560Z,642.3
2019-04-25T01:54:29.711Z,642.1
2019-04-25T01:55:33.992Z,642
2019-04-25T01:56:36.155Z,642.4
2019-04-25T01:57:38.045Z,642.6
2019-04-25T01:58:40.203Z,642.4
2019-04-25T01:59:44.343Z,642.5
2019-04-25T02:00:46.969Z,642.9
2019-04-25T02:01:48.835Z,642.4
2019-04-25T02:03:59.264Z,642.2
2019-04-25T02:05:03.932Z,642.7
2019-04-25T02:06:09.111Z,642.4
2019-04-25T02:07:11.541Z,642.2
2019-04-25T02:08:15.713Z,642.1
2019-04-25T02:09:18.139Z,642.4
2019-04-25T02:10:20.563Z,642
2019-04-25T02:11:23.884Z,642.1
2019-04-25T02:12:26.173Z,641.8
2019-04-25T02:13:28.332Z,642
2019-04-25T02:14:30.501Z,641.7
2019-04-25T02:15:34.854Z,642
2019-04-25T02:16:37.430Z,641.6
2019-04-25T02:17:39.878Z,641.7
2019-04-25T02:18:43.513Z,642
2019-04-25T02:19:45.920Z,642.2
2019-04-25T02:20:48.071Z,642.7
2019-04-25T02:21:51.398Z,642.6
2019-04-25T02:24:00.695Z,642.3
2019-04-25T02:27:15.316Z,641.7
2019-04-25T02:28:17.905Z,642.2
2019-04-25T02:29:20.323Z,642.4
2019-04-25T02:30:25.156Z,642.3
2019-04-25T02:31:29.381Z,642.1
2019-04-25T02:32:34.271Z,642
2019-04-25T02:33:38.434Z,641.6
2019-04-25T02:34:40.862Z,641.5
2019-04-25T02:36:48.786Z,641.9
2019-04-25T02:37:50.943Z,641.5
2019-04-25T02:42:10.671Z,641.5
2019-04-25T02:44:18.390Z,641.5
2019-04-25T02:45:20.819Z,641.6
2019-04-25T02:47:29.193Z,642
2019-04-25T02:48:34.146Z,641.8
2019-04-25T02:51:48.967Z,641.5
2019-04-25T02:52:51.406Z,641.5
2019-04-25T02:54:00.145Z,641.9
2019-04-25T02:57:16.539Z,642.5
2019-04-25T02:58:18.996Z,642.7
2019-04-25T02:59:21.423Z,643.1
2019-04-25T03:01:29.309Z,643
2019-04-25T03:02:31.735Z,643.3
2019-04-25T03:04:39.151Z,642.6
2019-04-25T03:05:41.623Z,642.6
2019-04-25T03:07:48.558Z,642.4
2019-04-25T03:08:50.703Z,642.4
2019-04-25T03:09:55.478Z,642.5
2019-04-25T03:14:16.605Z,642.8
2019-04-25T03:15:19.042Z,642.7
2019-04-25T03:16:21.474Z,642.5
2019-04-25T03:18:28.623Z,642.3
2019-04-25T03:19:30.475Z,642.1
2019-04-25T03:20:35.207Z,642.3
2019-04-25T03:21:39.521Z,642.8
2019-04-25T03:22:44.219Z,643.2
2019-04-25T03:23:48.848Z,642.8
2019-04-25T03:24:50.736Z,643.2
2019-04-25T03:25:54.256Z,643.1
2019-04-25T03:26:56.662Z,642.9
2019-04-25T03:28:01.384Z,642.9
2019-04-25T03:34:29.880Z,642.1
2019-04-25T03:35:33.475Z,642.2
2019-04-25T03:36:35.893Z,641.9
2019-04-25T03:37:38.054Z,642.6
2019-04-25T03:38:40.493Z,642.9
2019-04-25T03:39:44.612Z,643.1
2019-04-25T03:40:47.025Z,642.9
2019-04-25T03:41:49.446Z,642.7
2019-04-25T03:42:52.016Z,642.9
2019-04-25T03:43:56.080Z,642.8
2019-04-25T03:44:58.276Z,642.4
2019-04-25T03:46:00.740Z,642.4
2019-04-25T03:48:13.864Z,642.4
2019-04-25T03:49:16.082Z,642.2
2019-04-25T03:50:18.238Z,642.3
2019-04-25T03:51:20.660Z,642
2019-04-25T03:52:24.322Z,642
2019-04-25T03:53:26.182Z,641.9
2019-04-25T03:54:28.602Z,642
2019-04-25T03:55:30.756Z,641.6
2019-04-25T03:56:34.296Z,641.7
2019-04-25T03:57:36.712Z,641.5
2019-04-25T03:58:39.146Z,641.9
2019-04-25T03:59:41.573Z,642.2
2019-04-25T04:00:46.153Z,642.3
2019-04-25T04:01:48.291Z,641.9
2019-04-25T04:02:50.443Z,642.3
2019-04-25T04:03:54.045Z,642.2
2019-04-25T04:04:56.470Z,642.4
2019-04-25T04:05:58.650Z,642.6
2019-04-25T04:07:01.072Z,642
2019-04-25T04:09:10.322Z,641.8
2019-04-25T04:11:18.202Z,641.7
2019-04-25T04:12:20.338Z,641.6
2019-04-25T04:13:24.213Z,642
2019-04-25T04:14:26.762Z,641.7
2019-04-25T04:15:29.182Z,641.9
2019-04-25T04:16:31.601Z,641.7
2019-04-25T04:17:35.763Z,642
2019-04-25T04:18:37.900Z,641.7
2019-04-25T04:19:40.042Z,642.1
2019-04-25T04:20:43.422Z,641.8
2019-04-25T04:21:45.132Z,642
2019-04-25T04:22:47.558Z,641.6
2019-04-25T04:23:49.692Z,641.7
2019-04-25T04:24:53.624Z,641.3
2019-04-25T04:25:56.306Z,641.6
2019-04-25T04:28:06.119Z,641.8
2019-04-25T04:29:10.029Z,642.2
2019-04-25T04:30:15.355Z,642.4
2019-04-25T04:31:18.263Z,641.5
2019-04-25T04:32:20.691Z,641.6
2019-04-25T04:34:27.822Z,641.1
2019-04-25T04:35:29.970Z,641.4
2019-04-25T04:36:33.825Z,641.5
2019-04-25T04:37:36.041Z,641.1
2019-04-25T04:38:38.546Z,641.1
2019-04-25T04:39:40.980Z,641.1
2019-04-25T04:40:45.083Z,641.6
2019-04-25T04:41:47.508Z,641.7
2019-04-25T04:42:49.667Z,641.8
2019-04-25T04:43:52.091Z,641.6
2019-04-25T04:44:55.471Z,641.2
2019-04-25T04:45:57.892Z,641.4
2019-04-25T04:47:00.038Z,641.3
2019-04-25T04:48:03.772Z,641.5
2019-04-25T04:49:06.200Z,641.7
2019-04-25T04:50:11.022Z,641.5
2019-04-25T04:52:19.824Z,641.6
2019-04-25T04:53:23.964Z,642
2019-04-25T04:54:26.392Z,641.8
2019-04-25T04:55:28.816Z,641.6
2019-04-25T04:56:31.242Z,641.3
2019-04-25T04:58:38.654Z,640.6
2019-04-25T04:59:40.794Z,640.8
2019-04-25T05:00:44.781Z,640.4
2019-04-25T05:01:47.194Z,640.9
2019-04-25T05:02:49.058Z,641.2
2019-04-25T05:03:51.197Z,641.2
2019-04-25T05:04:55.212Z,641.1
2019-04-25T05:05:57.365Z,640.8
2019-04-25T05:06:59.508Z,640.9
2019-04-25T05:08:01.391Z,640.7
2019-04-25T05:09:05.153Z,640.6
2019-04-25T05:10:07.420Z,640.2
2019-04-25T05:11:09.925Z,640.3
2019-04-25T05:12:17.434Z,639.9
2019-04-25T05:13:20.528Z,639.9
2019-04-25T05:14:23.814Z,639.8
2019-04-25T05:15:28.768Z,639.9
2019-04-25T05:16:31.192Z,639.5
2019-04-25T05:17:35.360Z,639.5
2019-04-25T05:19:43.882Z,640
2019-04-25T05:20:46.294Z,639.7
2019-04-25T05:21:47.874Z,639.5
2019-04-25T05:22:50.292Z,639.4
2019-04-25T05:23:54.146Z,639.4
2019-04-25T05:24:56.692Z,639.3
2019-04-25T05:25:58.870Z,639.1
2019-04-25T05:27:01.314Z,639.5
2019-04-25T05:29:08.884Z,639.9
2019-04-25T05:30:11.089Z,639.8
2019-04-25T05:32:21.270Z,640.3
2019-04-25T05:33:27.021Z,640.5
2019-04-25T05:34:29.190Z,639.9
2019-04-25T05:35:31.327Z,639.8
2019-04-25T05:36:35.169Z,639.4
2019-04-25T05:37:37.593Z,639.5
2019-04-25T05:38:40.034Z,639.4
2019-04-25T05:39:43.902Z,639.1
2019-04-25T05:40:46.308Z,639.2
2019-04-25T05:41:48.745Z,639.4
2019-04-25T05:42:51.164Z,639.6
2019-04-25T05:43:54.734Z,639.9
2019-04-25T05:44:56.900Z,640
2019-04-25T05:45:59.046Z,640.2
2019-04-25T05:47:01.462Z,640.3
2019-04-25T05:49:09.274Z,640.3
2019-04-25T05:50:11.711Z,640.3
2019-04-25T05:51:17.585Z,640
2019-04-25T05:52:20.833Z,639.9
2019-04-25T05:53:26.992Z,639.7
2019-04-25T05:54:29.424Z,639.9
2019-04-25T05:55:31.844Z,639.9
2019-04-25T05:56:35.481Z,640
2019-04-25T05:58:44.619Z,640.3
2019-04-25T05:59:47.047Z,640.2
2019-04-25T06:00:49.206Z,640
2019-04-25T06:01:51.647Z,640.2
2019-04-25T06:02:55.320Z,640.1
2019-04-25T06:03:57.755Z,640.2
2019-04-25T06:04:59.930Z,640.2
2019-04-25T06:06:03.831Z,640.4
2019-04-25T06:07:07.428Z,640
2019-04-25T06:08:09.034Z,640.2
2019-04-25T06:09:11.474Z,639.6
2019-04-25T06:10:15.808Z,640.2
2019-04-25T06:11:21.489Z,639.8
2019-04-25T06:13:30.406Z,640
2019-04-25T06:14:34.309Z,640.7
2019-04-25T06:15:36.203Z,640.6
2019-04-25T06:16:38.346Z,640.3
2019-04-25T06:17:40.773Z,640.8
2019-04-25T06:18:44.508Z,640.7
2019-04-25T06:19:46.927Z,640.4
2019-04-25T06:20:49.365Z,640.7
2019-04-25T06:21:51.506Z,640.4
2019-04-25T06:22:55.365Z,640.2
2019-04-25T06:23:57.234Z,640.2
2019-04-25T06:24:59.658Z,640.5
2019-04-25T06:27:07.252Z,640.4
2019-04-25T06:28:09.402Z,640.2
2019-04-25T06:29:13.253Z,640.1
2019-04-25T06:30:17.613Z,640.3
2019-04-25T06:32:29.414Z,640.7
2019-04-25T06:33:34.497Z,640.9
2019-04-25T06:34:38.391Z,640.9
2019-04-25T06:35:40.809Z,641
2019-04-25T06:36:44.983Z,641.4
2019-04-25T06:37:47.424Z,641.2
2019-04-25T06:38:49.847Z,641
2019-04-25T06:39:53.541Z,640.6
2019-04-25T06:40:55.830Z,640.7
2019-04-25T06:41:57.966Z,640.6
2019-04-25T06:43:00.112Z,641.1
2019-04-25T06:44:03.638Z,641.1
2019-04-25T06:45:06.458Z,641.3
2019-04-25T06:46:08.592Z,641
2019-04-25T06:47:11.012Z,641.4
2019-04-25T06:48:14.927Z,641.1
2019-04-25T06:49:16.534Z,641.1
2019-04-25T06:50:18.688Z,640.9
2019-04-25T06:51:21.472Z,640.5
2019-04-25T06:53:29.270Z,641.5
2019-04-25T06:54:35.230Z,641.4
2019-04-25T06:55:37.502Z,641.6
2019-04-25T06:56:39.932Z,641.4
2019-04-25T06:57:44.008Z,641.5
2019-04-25T06:58:46.556Z,641.3
2019-04-25T06:59:48.988Z,641.2
2019-04-25T07:01:58.209Z,641.4
2019-04-25T07:03:00.637Z,641.8
2019-04-25T07:04:04.522Z,641.9
2019-04-25T07:05:06.675Z,641.7
2019-04-25T07:06:08.548Z,642
2019-04-25T07:08:15.942Z,642
2019-04-25T07:09:18.383Z,642.2
2019-04-25T07:10:20.794Z,642.2
2019-04-25T07:14:39.131Z,642.2
2019-04-25T07:15:41.583Z,642
2019-04-25T07:16:45.310Z,642
2019-04-25T07:17:47.956Z,642.4
2019-04-25T07:18:50.104Z,642.7
2019-04-25T07:19:53.940Z,642.3
2019-04-25T07:20:56.886Z,642.1
2019-04-25T07:21:58.882Z,642.5
2019-04-25T07:23:01.092Z,642.7
2019-04-25T07:24:05.108Z,642.4
2019-04-25T07:25:07.602Z,642.6
2019-04-25T07:26:09.538Z,642.5
2019-04-25T07:27:11.474Z,642.5
2019-04-25T07:29:18.612Z,643.1
2019-04-25T07:31:27.841Z,643
2019-04-25T07:33:37.372Z,643.5
2019-04-25T07:34:39.804Z,643.7
2019-04-25T07:35:43.275Z,643.3
2019-04-25T07:36:47.538Z,643.5
2019-04-25T07:37:49.963Z,643.4
2019-04-25T07:39:57.359Z,643.7
2019-04-25T07:40:59.242Z,643.4
2019-04-25T07:42:01.687Z,643.3
2019-04-25T07:43:06.353Z,643.4
2019-04-25T07:44:08.504Z,643.8
2019-04-25T07:45:10.560Z,643.9
2019-04-25T07:46:14.928Z,643.9
2019-04-25T07:47:17.959Z,644.1
2019-04-25T07:49:30.248Z,644.2
2019-04-25T07:50:37.156Z,643.7
2019-04-25T07:51:39.320Z,643.9
2019-04-25T07:52:41.753Z,643.9
2019-04-25T07:53:45.605Z,644
2019-04-25T07:54:47.481Z,644
2019-04-25T07:55:49.660Z,644.3
2019-04-25T07:56:54.729Z,644.5
2019-04-25T07:57:58.166Z,644.2
2019-04-25T07:59:00.346Z,644.9
2019-04-25T08:01:08.724Z,645.1
2019-04-25T08:02:10.887Z,645.3
2019-04-25T08:03:15.965Z,645.3
2019-04-25T08:04:18.404Z,645.2
2019-04-25T08:05:20.842Z,644.8
2019-04-25T08:06:25.719Z,644.9
2019-04-25T08:07:30.313Z,644.9
2019-04-25T08:09:39.962Z,645.1
2019-04-25T08:10:45.347Z,645
2019-04-25T08:11:47.549Z,645.5
2019-04-25T08:12:49.970Z,645.3
2019-04-25T08:13:54.033Z,645.1
2019-04-25T08:14:56.467Z,645.4
2019-04-25T08:15:58.891Z,645.5
2019-04-25T08:17:01.517Z,645.3
2019-04-25T08:18:05.583Z,645.4
2019-04-25T08:19:07.723Z,645.5
2019-04-25T08:20:10.163Z,645.3
2019-04-25T08:21:12.338Z,645.4
2019-04-25T08:22:15.314Z,645.7
2019-04-25T08:23:17.753Z,645.5
2019-04-25T08:24:20.177Z,646.2
2019-04-25T08:25:24.413Z,645.6
2019-04-25T08:26:26.558Z,645.6
2019-04-25T08:27:28.730Z,645.3
2019-04-25T08:30:45.154Z,645.7
2019-04-25T08:31:47.066Z,645.7
2019-04-25T08:32:49.506Z,645.5
2019-04-25T08:33:53.453Z,645.6
2019-04-25T08:34:56.196Z,645.9
2019-04-25T08:38:11.619Z,646.3
2019-04-25T08:39:15.921Z,646.6
2019-04-25T08:40:18.074Z,646.2
2019-04-25T08:42:25.633Z,646.4
2019-04-25T08:43:28.051Z,646.2
2019-04-25T08:44:30.200Z,646.6
2019-04-25T08:46:43.715Z,646.4
2019-04-25T08:47:46.299Z,646.5
2019-04-25T08:48:48.727Z,646.4
2019-04-25T08:49:51.566Z,646.6
2019-04-25T08:50:55.563Z,646.6
2019-04-25T08:51:57.986Z,646.7
2019-04-25T08:53:00.414Z,646.8
2019-04-25T08:54:04.494Z,646.9
2019-04-25T08:55:06.915Z,647.4
2019-04-25T08:56:09.361Z,647.5
2019-04-25T08:57:11.233Z,647.5
2019-04-25T08:58:15.214Z,647.6
2019-04-25T08:59:17.650Z,647.3
2019-04-25T09:00:20.079Z,647.3
2019-04-25T09:01:24.090Z,647.9
2019-04-25T09:02:26.219Z,648.1
2019-04-25T09:03:28.375Z,648
2019-04-25T09:04:31.649Z,648.6
2019-04-25T09:05:40.842Z,648.4
2019-04-25T09:06:45.781Z,648.5
2019-04-25T09:07:48.216Z,648.5
2019-04-25T09:08:50.379Z,648.4
2019-04-25T09:09:54.418Z,648.2
2019-04-25T09:10:56.564Z,647.9
2019-04-25T09:11:59.002Z,648.2
2019-04-25T09:13:01.433Z,648.6
2019-04-25T09:14:05.583Z,648.7
2019-04-25T09:15:08.019Z,648.2
2019-04-25T09:16:10.456Z,648.2
2019-04-25T09:17:12.341Z,648.1
2019-04-25T09:18:15.803Z,647.7
2019-04-25T09:19:17.958Z,648.7
2019-04-25T09:20:20.112Z,647.9
2019-04-25T09:21:24.275Z,647.8
2019-04-25T09:22:26.422Z,648.2
2019-04-25T09:23:28.853Z,648.5
2019-04-25T09:24:31.008Z,648.8
2019-04-25T09:26:40.783Z,648.1
2019-04-25T09:27:47.765Z,648.8
2019-04-25T09:28:50.191Z,648.7
2019-04-25T09:29:54.127Z,649.1
2019-04-25T09:30:56.394Z,649.2
2019-04-25T09:31:58.825Z,648.6
2019-04-25T09:33:01.252Z,648.6
2019-04-25T09:34:05.072Z,649
2019-04-25T09:35:07.196Z,648.8
2019-04-25T09:36:09.620Z,648.8
2019-04-25T09:37:12.052Z,648.5
2019-04-25T09:38:15.274Z,648.4
2019-04-25T09:39:17.695Z,648.6
2019-04-25T09:40:19.847Z,648.9
2019-04-25T09:41:24.135Z,648.8
2019-04-25T09:42:26.310Z,648.8
2019-04-25T09:43:28.185Z,649
2019-04-25T09:44:30.334Z,649.2
2019-04-25T09:45:35.951Z,649
2019-04-25T09:46:40.019Z,649.2
2019-04-25T09:47:46.559Z,648.9
2019-04-25T09:48:48.858Z,649.3
2019-04-25T09:49:51.290Z,649.1
2019-04-25T09:50:54.892Z,649.3
2019-04-25T09:51:57.323Z,649
2019-04-25T09:52:59.495Z,649
2019-04-25T09:54:03.347Z,649.3
2019-04-25T09:55:05.931Z,649.5
2019-04-25T09:56:08.079Z,649.5
2019-04-25T09:57:10.499Z,649.6
2019-04-25T09:58:15.191Z,649.8
2019-04-25T10:00:24.194Z,650
2019-04-25T10:01:26.352Z,650.2
2019-04-25T10:02:28.483Z,650.6
2019-04-25T10:03:30.909Z,650.7
2019-04-25T10:05:40.337Z,650.2
2019-04-25T10:07:50.594Z,650.6
2019-04-25T10:08:54.856Z,650.7
2019-04-25T10:09:57.967Z,650.6
2019-04-25T10:11:00.403Z,650.8
2019-04-25T10:12:02.562Z,650.7
2019-04-25T10:14:09.963Z,651
2019-04-25T10:15:12.107Z,651.1
2019-04-25T10:16:14.265Z,651.5
2019-04-25T10:17:16.707Z,651.4
2019-04-25T10:18:18.561Z,651.8
2019-04-25T10:19:21.001Z,651.7
2019-04-25T10:20:24.505Z,651.5
2019-04-25T10:21:26.931Z,651.7
2019-04-25T10:22:29.370Z,651.8
2019-04-25T10:23:31.510Z,651.5
2019-04-25T10:24:33.685Z,651
2019-04-25T10:25:36.099Z,651.2
2019-04-25T10:26:42.111Z,651.2
2019-04-25T10:28:50.067Z,651.9
2019-04-25T10:30:58.454Z,652.1
2019-04-25T10:32:00.884Z,653
2019-04-25T10:33:05.022Z,653.5
2019-04-25T10:34:07.464Z,653.7
2019-04-25T10:35:09.871Z,653.3
2019-04-25T10:36:12.294Z,653.3
2019-04-25T10:37:15.523Z,653.8
2019-04-25T10:38:17.687Z,653.6
2019-04-25T10:39:19.918Z,653.4
2019-04-25T10:40:23.378Z,653.1
2019-04-25T10:41:28.442Z,653.4
2019-04-25T10:42:30.879Z,653.1
2019-04-25T10:43:35.162Z,653.6
2019-04-25T10:44:37.333Z,652.8
2019-04-25T10:45:44.697Z,653.7
2019-04-25T10:46:50.133Z,653.4
2019-04-25T10:48:58.986Z,653.8
2019-04-25T10:50:01.174Z,653.1
2019-04-25T10:51:05.652Z,654.1
2019-04-25T10:52:08.077Z,654
2019-04-25T10:53:10.503Z,654.2
2019-04-25T10:54:15.040Z,653.7
2019-04-25T10:55:17.472Z,654
2019-04-25T10:56:19.898Z,653.7
2019-04-25T10:57:22.310Z,654.1
2019-04-25T10:58:24.773Z,652.8
2019-04-25T10:59:27.197Z,653.4
2019-04-25T11:00:29.335Z,653.5
2019-04-25T11:01:31.760Z,653.9
2019-04-25T11:02:35.914Z,654.1
2019-04-25T11:03:38.340Z,654.3
2019-04-25T11:05:50.339Z,653.8
2019-04-25T11:06:53.716Z,653.5
2019-04-25T11:07:57.334Z,653.9
2019-04-25T11:08:59.504Z,654.1
2019-04-25T11:10:03.405Z,653.8
2019-04-25T11:11:06.022Z,654.1
2019-04-25T11:12:07.923Z,654
2019-04-25T11:13:09.816Z,654.6
2019-04-25T11:14:13.971Z,654.5
2019-04-25T11:15:16.390Z,654.4
2019-04-25T11:16:18.813Z,654
2019-04-25T11:17:20.947Z,654.3
2019-04-25T11:18:24.603Z,654.5
2019-04-25T11:19:27.045Z,654.6
2019-04-25T11:20:29.469Z,654.9
2019-04-25T11:21:33.766Z,655.2
2019-04-25T11:22:36.241Z,655.1
2019-04-25T11:23:38.658Z,655.2
2019-04-25T11:24:43.707Z,655
2019-04-25T11:25:48.733Z,654.9
2019-04-25T11:27:59.014Z,655.1
2019-04-25T11:29:00.889Z,655.3
2019-04-25T11:31:08.303Z,656.3
2019-04-25T11:32:10.720Z,655.5
2019-04-25T11:33:14.774Z,656.2
2019-04-25T11:34:18.037Z,656.2
2019-04-25T11:35:19.901Z,656.9
2019-04-25T11:36:22.332Z,657.2
2019-04-25T11:37:25.616Z,657.2
2019-04-25T11:38:27.492Z,657.1
2019-04-25T11:39:29.920Z,657.2
2019-04-25T11:40:32.068Z,656.6
2019-04-25T11:41:36.101Z,657
2019-04-25T11:42:38.250Z,657.3
2019-04-25T11:43:40.679Z,657.2
2019-04-25T11:45:50.222Z,657
2019-04-25T11:46:52.073Z,656.3
2019-04-25T11:47:56.761Z,655.2
2019-04-25T11:48:58.923Z,656.7
2019-04-25T11:50:01.346Z,656.5
2019-04-25T11:51:05.553Z,656.4
2019-04-25T11:52:07.982Z,655.8
2019-04-25T11:53:10.131Z,655.9
2019-04-25T11:54:14.380Z,657
2019-04-25T11:55:16.837Z,656.1
2019-04-25T11:56:19.255Z,656.3
2019-04-25T11:57:22.959Z,656.1
2019-04-25T11:58:25.491Z,655.9
2019-04-25T11:59:27.634Z,655.6
2019-04-25T12:00:29.805Z,655.8
2019-04-25T12:01:34.083Z,656.4
2019-04-25T12:02:36.226Z,655.7
2019-04-25T12:03:38.372Z,655.7
2019-04-25T12:04:40.501Z,655.9
2019-04-25T12:06:49.278Z,655.8
2019-04-25T12:07:52.977Z,656.7
2019-04-25T12:08:57.893Z,656.9
2019-04-25T12:10:00.079Z,655.9
2019-04-25T12:11:02.397Z,656.5
2019-04-25T12:13:09.584Z,656.1
2019-04-25T12:14:11.737Z,655.9
2019-04-25T12:16:18.883Z,655.5
2019-04-25T12:17:21.308Z,656.1
2019-04-25T12:18:23.202Z,655.1
2019-04-25T12:20:30.614Z,655.1
2019-04-25T12:21:34.473Z,655.4
2019-04-25T12:22:36.911Z,654.9
2019-04-25T12:23:39.074Z,655.6
2019-04-25T12:24:41.522Z,654.9
2019-04-25T12:26:51.623Z,655.9
2019-04-25T12:28:58.755Z,655.5
2019-04-25T12:30:01.495Z,655.8
2019-04-25T12:31:05.766Z,655.2
2019-04-25T12:32:07.933Z,655.6
2019-04-25T12:34:16.177Z,655.3
2019-04-25T12:35:18.336Z,655.9
2019-04-25T12:36:20.229Z,655.5
2019-04-25T12:38:28.590Z,655.6
2019-04-25T12:39:31.025Z,655.7
2019-04-25T12:40:35.280Z,655.3
2019-04-25T12:41:37.704Z,655.6
2019-04-25T12:42:40.137Z,655.4
2019-04-25T12:43:43.527Z,655.3
2019-04-25T12:44:50.867Z,655.3
2019-04-25T12:45:54.313Z,654.2
2019-04-25T12:46:58.333Z,656.1
2019-04-25T12:48:01.033Z,655.3
2019-04-25T12:49:03.193Z,655.6
2019-04-25T12:50:05.734Z,656.4
2019-04-25T12:51:07.611Z,656.6
2019-04-25T12:52:09.515Z,656.6
2019-04-25T12:53:13.735Z,655.9
2019-04-25T12:54:15.749Z,656.7
2019-04-25T12:55:18.176Z,656.6
2019-04-25T12:57:28.724Z,656.7
2019-04-25T12:58:30.874Z,657
2019-04-25T12:59:33.306Z,656.7
2019-04-25T13:01:43.253Z,657.4
2019-04-25T13:02:46.683Z,657.2
2019-04-25T13:03:50.821Z,657.2
2019-04-25T13:05:59.592Z,656.3
2019-04-25T13:07:01.745Z,656.7
2019-04-25T13:09:09.156Z,657
2019-04-25T13:10:11.303Z,657
2019-04-25T13:11:15.104Z,656.9
2019-04-25T13:12:18.489Z,656.7
2019-04-25T13:13:22.222Z,656.7
2019-04-25T13:14:26.747Z,657.3
2019-04-25T13:15:30.273Z,657.5
2019-04-25T13:16:32.137Z,657.7
2019-04-25T13:17:35.677Z,657.7
2019-04-25T13:18:37.831Z,657.2
2019-04-25T13:19:40.252Z,657.8
2019-04-25T13:20:42.687Z,657.6
2019-04-25T13:21:44.737Z,658
2019-04-25T13:22:46.877Z,657.1
2019-04-25T13:23:48.752Z,657.8
2019-04-25T13:24:50.913Z,657.6
2019-04-25T13:25:57.249Z,657
2019-04-25T13:27:01.565Z,657.5
2019-04-25T13:29:09.403Z,658.2
2019-04-25T13:30:11.565Z,658.1
2019-04-25T13:32:18.690Z,658
2019-04-25T13:33:21.118Z,658
2019-04-25T13:35:28.237Z,657.1
2019-04-25T13:36:30.387Z,657.5
2019-04-25T13:37:34.034Z,657.7
2019-04-25T13:38:36.571Z,657.6
2019-04-25T13:39:39.011Z,657.2
2019-04-25T13:40:41.166Z,657.8
2019-04-25T13:41:46.293Z,657.7
2019-04-25T13:42:48.184Z,657.5
2019-04-25T13:43:50.351Z,657.7
2019-04-25T13:44:54.246Z,657.9
2019-04-25T13:45:56.741Z,657.5
2019-04-25T13:46:58.901Z,658.4
2019-04-25T13:48:01.327Z,658.4
2019-04-25T13:49:05.422Z,658.6
2019-04-25T13:50:07.579Z,658.9
2019-04-25T13:51:09.740Z,659.1
2019-04-25T13:52:11.599Z,658.7
2019-04-25T13:53:14.925Z,658.8
2019-04-25T13:54:17.093Z,659.3
2019-04-25T13:55:18.704Z,659.1
2019-04-25T13:56:22.972Z,658.5
2019-04-25T13:57:28.837Z,659.7
2019-04-25T13:58:35.273Z,659
2019-04-25T13:59:37.706Z,659.6
2019-04-25T14:00:40.143Z,659.1
2019-04-25T14:01:44.009Z,659
2019-04-25T14:02:46.593Z,659.4
2019-04-25T14:03:49.159Z,659.2
2019-04-25T14:04:51.654Z,659.8
2019-04-25T14:05:55.880Z,659.7
2019-04-25T14:06:58.101Z,659.5
2019-04-25T14:08:00.520Z,659.3
2019-04-25T14:09:04.679Z,659.4
2019-04-25T14:10:07.098Z,659.4
2019-04-25T14:11:09.245Z,659.4
2019-04-25T14:12:11.670Z,659.2
2019-04-25T14:13:15.163Z,659.3
2019-04-25T14:14:17.614Z,659.3
2019-04-25T14:15:19.481Z,659.8
2019-04-25T14:17:29.027Z,660
2019-04-25T14:18:32.470Z,660.4
2019-04-25T14:19:37.601Z,660.3
2019-04-25T14:20:40.044Z,660.2
2019-04-25T14:21:43.874Z,659.8
2019-04-25T14:22:47.383Z,660.3
2019-04-25T14:23:49.538Z,659.8
2019-04-25T14:24:51.697Z,659.6
2019-04-25T14:25:54.124Z,659.6
2019-04-25T14:26:56.053Z,659.7
2019-04-25T14:27:57.679Z,659.7
2019-04-25T14:28:59.844Z,659.6
2019-04-25T14:30:03.669Z,659.7
2019-04-25T14:31:06.271Z,659.8
2019-04-25T14:32:08.159Z,661
2019-04-25T14:33:10.587Z,660.9
2019-04-25T14:34:14.305Z,660.8
2019-04-25T14:35:16.735Z,660.5
2019-04-25T14:36:18.894Z,660.8
2019-04-25T14:37:28.077Z,661.1
2019-04-25T14:38:31.594Z,661.6
2019-04-25T14:39:34.555Z,660.8
2019-04-25T14:40:36.732Z,660.8
2019-04-25T14:41:39.163Z,660.9
2019-04-25T14:42:41.591Z,660.9
2019-04-25T14:44:50.173Z,661.3
2019-04-25T14:45:52.297Z,660.8
2019-04-25T14:46:54.722Z,661.2
2019-04-25T14:47:56.873Z,661.3
2019-04-25T14:48:59.016Z,661
2019-04-25T14:50:01.454Z,661.2
2019-04-25T14:51:03.887Z,661.4
2019-04-25T14:52:06.315Z,661
2019-04-25T14:53:08.763Z,660.8
2019-04-25T14:54:10.903Z,661
2019-04-25T14:55:13.345Z,660.9
2019-04-25T14:56:17.254Z,661.2
2019-04-25T14:57:19.401Z,661.3
2019-04-25T14:58:22.831Z,661.2
2019-04-25T14:59:27.348Z,661.5
2019-04-25T15:00:30.640Z,661.1
2019-04-25T15:02:38.366Z,661.2
2019-04-25T15:03:40.794Z,660.9
2019-04-25T15:04:43.241Z,661
2019-04-25T15:05:45.409Z,661.2
2019-04-25T15:06:47.305Z,661.4
2019-04-25T15:07:50.233Z,661.2
2019-04-25T15:08:52.379Z,661.2
2019-04-25T15:09:54.830Z,661.3
2019-04-25T15:10:57.253Z,661.2
2019-04-25T15:11:59.684Z,661.3
2019-04-25T15:13:02.113Z,660.8
2019-04-25T15:14:04.289Z,661.4
2019-04-25T15:15:06.727Z,661.4
2019-04-25T15:16:08.875Z,661.6
2019-04-25T15:17:10.750Z,661.3
2019-04-25T15:18:13.185Z,661.5
2019-04-25T15:19:15.612Z,661.4